sensor_id;sensor_type;location;lat;lon;timestamp;P1;durP1;ratioP1;P2;durP2;ratioP2
61525;SDS011;47394;41.366;-8.738;2023-04-20T00:00:50;42.65;;;10.80;;
61525;SDS011;47394;41.366;-8.738;2023-04-20T00:02:51;34.10;;;10.57;;
61525;SDS011;47394;41.366;-8.738;2023-04-20T00:04:52;27.27;;;9.18;;
61525;SDS011;47394;41.366;-8.738;2023-04-20T00:06:52;27.10;;;9.52;;
61525;SDS011;47394;41.366;-8.738;2023-04-20T00:08:53;34.35;;;9.52;;
61525;SDS011;47394;41.366;-8.738;2023-04-20T00:10:53;34.67;;;10.80;;
61525;SDS011;47394;41.366;-8.738;2023-04-20T00:12:54;25.92;;;8.77;;
61525;SDS011;47394;41.366;-8.738;2023-04-20T00:14:54;28.30;;;9.45;;
61525;SDS011;47394;41.366;-8.738;2023-04-20T00:16:55;33.65;;;9.40;;
61525;SDS011;47394;41.366;-8.738;2023-04-20T00:18:56;41.83;;;9.50;;
61525;SDS011;47394;41.366;-8.738;2023-04-20T00:20:56;31.38;;;9.23;;
61525;SDS011;47394;41.366;-8.738;2023-04-20T00:22:57;29.38;;;9.55;;
61525;SDS011;47394;41.366;-8.738;2023-04-20T00:24:57;46.00;;;9.90;;
61525;SDS011;47394;41.366;-8.738;2023-04-20T00:26:58;34.92;;;10.38;;
61525;SDS011;47394;41.366;-8.738;2023-04-20T00:28:58;32.05;;;10.63;;
61525;SDS011;47394;41.366;-8.738;2023-04-20T00:30:59;33.45;;;10.55;;
61525;SDS011;47394;41.366;-8.738;2023-04-20T00:33:00;31.75;;;9.93;;
61525;SDS011;47394;41.366;-8.738;2023-04-20T00:35:01;30.98;;;10.13;;
61525;SDS011;47394;41.366;-8.738;2023-04-20T00:37:01;35.10;;;10.50;;
61525;SDS011;47394;41.366;-8.738;2023-04-20T00:39:02;26.58;;;9.15;;
61525;SDS011;47394;41.366;-8.738;2023-04-20T00:41:04;25.50;;;9.35;;
61525;SDS011;47394;41.366;-8.738;2023-04-20T00:43:11;30.38;;;8.98;;
61525;SDS011;47394;41.366;-8.738;2023-04-20T00:45:12;30.38;;;9.10;;
61525;SDS011;47394;41.366;-8.738;2023-04-20T00:47:13;35.55;;;9.75;;
61525;SDS011;47394;41.366;-8.738;2023-04-20T00:49:13;35.40;;;10.07;;
61525;SDS011;47394;41.366;-8.738;2023-04-20T00:51:14;30.33;;;10.50;;
61525;SDS011;47394;41.366;-8.738;2023-04-20T00:53:14;25.02;;;8.38;;
61525;SDS011;47394;41.366;-8.738;2023-04-20T00:55:16;23.13;;;8.85;;
61525;SDS011;47394;41.366;-8.738;2023-04-20T00:57:18;28.07;;;8.40;;
61525;SDS011;47394;41.366;-8.738;2023-04-20T00:59:23;31.30;;;9.65;;
61525;SDS011;47394;41.366;-8.738;2023-04-20T01:01:23;29.55;;;9.35;;
61525;SDS011;47394;41.366;-8.738;2023-04-20T01:03:24;19.80;;;7.78;;
61525;SDS011;47394;41.366;-8.738;2023-04-20T01:05:24;27.30;;;8.70;;
61525;SDS011;47394;41.366;-8.738;2023-04-20T01:07:26;26.48;;;9.25;;
61525;SDS011;47394;41.366;-8.738;2023-04-20T01:09:27;28.55;;;8.60;;
61525;SDS011;47394;41.366;-8.738;2023-04-20T01:11:27;23.42;;;8.68;;
61525;SDS011;47394;41.366;-8.738;2023-04-20T01:13:28;23.67;;;8.50;;
61525;SDS011;47394;41.366;-8.738;2023-04-20T01:15:29;27.30;;;9.10;;
61525;SDS011;47394;41.366;-8.738;2023-04-20T01:17:30;24.92;;;8.70;;
61525;SDS011;47394;41.366;-8.738;2023-04-20T01:19:31;21.40;;;7.95;;
61525;SDS011;47394;41.366;-8.738;2023-04-20T01:21:31;31.95;;;8.93;;
61525;SDS011;47394;41.366;-8.738;2023-04-20T01:23:35;34.50;;;8.88;;
61525;SDS011;47394;41.366;-8.738;2023-04-20T01:25:37;31.95;;;8.82;;
61525;SDS011;47394;41.366;-8.738;2023-04-20T01:27:37;39.58;;;9.48;;
61525;SDS011;47394;41.366;-8.738;2023-04-20T01:29:38;34.72;;;9.35;;
61525;SDS011;47394;41.366;-8.738;2023-04-20T01:31:39;24.77;;;8.60;;
61525;SDS011;47394;41.366;-8.738;2023-04-20T01:33:39;33.80;;;9.38;;
61525;SDS011;47394;41.366;-8.738;2023-04-20T01:35:41;32.33;;;9.02;;
61525;SDS011;47394;41.366;-8.738;2023-04-20T01:37:42;27.15;;;8.63;;
61525;SDS011;47394;41.366;-8.738;2023-04-20T01:39:42;22.98;;;7.95;;
61525;SDS011;47394;41.366;-8.738;2023-04-20T01:41:45;24.38;;;7.97;;
61525;SDS011;47394;41.366;-8.738;2023-04-20T01:43:45;31.98;;;8.55;;
61525;SDS011;47394;41.366;-8.738;2023-04-20T01:45:46;29.38;;;8.45;;
61525;SDS011;47394;41.366;-8.738;2023-04-20T01:47:46;24.45;;;8.35;;
61525;SDS011;47394;41.366;-8.738;2023-04-20T01:49:47;22.38;;;8.18;;
61525;SDS011;47394;41.366;-8.738;2023-04-20T01:51:48;31.70;;;9.63;;
61525;SDS011;47394;41.366;-8.738;2023-04-20T01:53:49;31.70;;;9.90;;
61525;SDS011;47394;41.366;-8.738;2023-04-20T01:55:49;27.40;;;12.02;;
61525;SDS011;47394;41.366;-8.738;2023-04-20T01:57:50;31.52;;;12.27;;
61525;SDS011;47394;41.366;-8.738;2023-04-20T01:59:51;30.05;;;11.02;;
61525;SDS011;47394;41.366;-8.738;2023-04-20T02:01:51;27.75;;;10.40;;
61525;SDS011;47394;41.366;-8.738;2023-04-20T02:03:52;30.15;;;11.02;;
61525;SDS011;47394;41.366;-8.738;2023-04-20T02:05:54;23.07;;;9.93;;
61525;SDS011;47394;41.366;-8.738;2023-04-20T02:07:55;26.52;;;11.18;;
61525;SDS011;47394;41.366;-8.738;2023-04-20T02:09:55;24.33;;;10.85;;
61525;SDS011;47394;41.366;-8.738;2023-04-20T02:11:56;25.77;;;9.75;;
61525;SDS011;47394;41.366;-8.738;2023-04-20T02:13:57;31.05;;;11.85;;
61525;SDS011;47394;41.366;-8.738;2023-04-20T02:15:58;34.17;;;12.98;;
61525;SDS011;47394;41.366;-8.738;2023-04-20T02:17:59;32.75;;;12.15;;
61525;SDS011;47394;41.366;-8.738;2023-04-20T02:20:00;29.90;;;11.25;;
61525;SDS011;47394;41.366;-8.738;2023-04-20T02:22:00;33.03;;;11.75;;
61525;SDS011;47394;41.366;-8.738;2023-04-20T02:24:01;25.83;;;11.75;;
61525;SDS011;47394;41.366;-8.738;2023-04-20T02:26:01;25.55;;;11.45;;
61525;SDS011;47394;41.366;-8.738;2023-04-20T02:28:02;26.00;;;9.93;;
61525;SDS011;47394;41.366;-8.738;2023-04-20T02:30:03;24.35;;;10.43;;
61525;SDS011;47394;41.366;-8.738;2023-04-20T02:32:05;28.13;;;10.27;;
61525;SDS011;47394;41.366;-8.738;2023-04-20T02:34:07;33.20;;;10.90;;
61525;SDS011;47394;41.366;-8.738;2023-04-20T02:36:08;37.47;;;11.90;;
61525;SDS011;47394;41.366;-8.738;2023-04-20T02:38:09;32.90;;;11.90;;
61525;SDS011;47394;41.366;-8.738;2023-04-20T02:40:12;23.38;;;10.35;;
61525;SDS011;47394;41.366;-8.738;2023-04-20T02:42:13;30.58;;;11.18;;
61525;SDS011;47394;41.366;-8.738;2023-04-20T02:44:15;26.50;;;11.57;;
61525;SDS011;47394;41.366;-8.738;2023-04-20T02:46:16;29.13;;;12.07;;
61525;SDS011;47394;41.366;-8.738;2023-04-20T02:48:17;29.85;;;12.30;;
61525;SDS011;47394;41.366;-8.738;2023-04-20T02:50:18;25.98;;;10.75;;
61525;SDS011;47394;41.366;-8.738;2023-04-20T02:52:33;21.42;;;10.07;;
61525;SDS011;47394;41.366;-8.738;2023-04-20T02:54:35;30.13;;;11.67;;
61525;SDS011;47394;41.366;-8.738;2023-04-20T02:56:35;28.08;;;12.52;;
61525;SDS011;47394;41.366;-8.738;2023-04-20T02:58:40;27.08;;;11.55;;
61525;SDS011;47394;41.366;-8.738;2023-04-20T03:01:10;27.77;;;10.60;;
61525;SDS011;47394;41.366;-8.738;2023-04-20T03:03:12;27.85;;;12.85;;
61525;SDS011;47394;41.366;-8.738;2023-04-20T03:05:12;33.80;;;12.30;;
61525;SDS011;47394;41.366;-8.738;2023-04-20T03:07:17;31.67;;;12.45;;
61525;SDS011;47394;41.366;-8.738;2023-04-20T03:09:17;30.75;;;12.27;;
61525;SDS011;47394;41.366;-8.738;2023-04-20T03:11:29;26.17;;;11.43;;
61525;SDS011;47394;41.366;-8.738;2023-04-20T03:13:31;29.88;;;11.73;;
61525;SDS011;47394;41.366;-8.738;2023-04-20T03:15:35;26.85;;;11.45;;
61525;SDS011;47394;41.366;-8.738;2023-04-20T03:18:01;32.40;;;12.88;;
61525;SDS011;47394;41.366;-8.738;2023-04-20T03:20:04;22.10;;;11.50;;
61525;SDS011;47394;41.366;-8.738;2023-04-20T03:22:04;28.20;;;11.63;;
61525;SDS011;47394;41.366;-8.738;2023-04-20T03:24:07;29.95;;;11.88;;
61525;SDS011;47394;41.366;-8.738;2023-04-20T03:26:07;29.15;;;12.68;;
61525;SDS011;47394;41.366;-8.738;2023-04-20T03:28:28;31.85;;;13.20;;
61525;SDS011;47394;41.366;-8.738;2023-04-20T03:30:29;26.58;;;12.82;;
61525;SDS011;47394;41.366;-8.738;2023-04-20T03:32:46;35.80;;;12.50;;
61525;SDS011;47394;41.366;-8.738;2023-04-20T03:34:46;27.08;;;12.82;;
61525;SDS011;47394;41.366;-8.738;2023-04-20T03:36:48;34.67;;;12.77;;
61525;SDS011;47394;41.366;-8.738;2023-04-20T03:38:48;37.88;;;13.45;;
61525;SDS011;47394;41.366;-8.738;2023-04-20T03:40:49;39.92;;;14.40;;
61525;SDS011;47394;41.366;-8.738;2023-04-20T03:42:50;34.45;;;12.90;;
61525;SDS011;47394;41.366;-8.738;2023-04-20T03:44:50;33.47;;;14.18;;
61525;SDS011;47394;41.366;-8.738;2023-04-20T03:46:51;42.17;;;14.73;;
61525;SDS011;47394;41.366;-8.738;2023-04-20T03:48:52;35.70;;;13.75;;
61525;SDS011;47394;41.366;-8.738;2023-04-20T03:50:52;35.03;;;14.45;;
61525;SDS011;47394;41.366;-8.738;2023-04-20T03:52:53;33.60;;;13.68;;
61525;SDS011;47394;41.366;-8.738;2023-04-20T03:54:54;33.28;;;14.07;;
61525;SDS011;47394;41.366;-8.738;2023-04-20T03:56:54;38.67;;;14.07;;
61525;SDS011;47394;41.366;-8.738;2023-04-20T03:58:56;29.10;;;12.82;;
61525;SDS011;47394;41.366;-8.738;2023-04-20T04:01:02;33.65;;;13.52;;
61525;SDS011;47394;41.366;-8.738;2023-04-20T04:03:05;34.30;;;14.43;;
61525;SDS011;47394;41.366;-8.738;2023-04-20T04:05:06;33.67;;;14.52;;
61525;SDS011;47394;41.366;-8.738;2023-04-20T04:07:07;31.17;;;13.50;;
61525;SDS011;47394;41.366;-8.738;2023-04-20T04:09:07;28.67;;;14.23;;
61525;SDS011;47394;41.366;-8.738;2023-04-20T04:11:08;33.55;;;13.45;;
61525;SDS011;47394;41.366;-8.738;2023-04-20T04:13:09;29.65;;;13.93;;
61525;SDS011;47394;41.366;-8.738;2023-04-20T04:15:10;31.10;;;14.80;;
61525;SDS011;47394;41.366;-8.738;2023-04-20T04:17:19;28.65;;;13.63;;
61525;SDS011;47394;41.366;-8.738;2023-04-20T04:19:20;35.08;;;13.77;;
61525;SDS011;47394;41.366;-8.738;2023-04-20T04:21:21;29.65;;;12.88;;
61525;SDS011;47394;41.366;-8.738;2023-04-20T04:23:28;39.60;;;14.20;;
61525;SDS011;47394;41.366;-8.738;2023-04-20T04:25:41;31.55;;;15.30;;
61525;SDS011;47394;41.366;-8.738;2023-04-20T04:27:44;31.67;;;15.18;;
61525;SDS011;47394;41.366;-8.738;2023-04-20T04:29:46;39.00;;;15.63;;
61525;SDS011;47394;41.366;-8.738;2023-04-20T04:31:52;35.97;;;15.52;;
61525;SDS011;47394;41.366;-8.738;2023-04-20T04:33:54;35.80;;;15.18;;
61525;SDS011;47394;41.366;-8.738;2023-04-20T04:36:12;55.08;;;16.45;;
61525;SDS011;47394;41.366;-8.738;2023-04-20T04:38:14;36.00;;;14.65;;
61525;SDS011;47394;41.366;-8.738;2023-04-20T04:40:18;32.80;;;15.35;;
61525;SDS011;47394;41.366;-8.738;2023-04-20T04:42:22;29.85;;;14.50;;
61525;SDS011;47394;41.366;-8.738;2023-04-20T04:44:23;31.92;;;14.05;;
61525;SDS011;47394;41.366;-8.738;2023-04-20T04:46:25;35.30;;;15.43;;
61525;SDS011;47394;41.366;-8.738;2023-04-20T04:48:26;32.95;;;14.10;;
61525;SDS011;47394;41.366;-8.738;2023-04-20T04:50:27;32.00;;;14.05;;
61525;SDS011;47394;41.366;-8.738;2023-04-20T04:52:28;29.75;;;14.07;;
61525;SDS011;47394;41.366;-8.738;2023-04-20T04:54:28;46.63;;;15.05;;
61525;SDS011;47394;41.366;-8.738;2023-04-20T04:56:30;30.10;;;15.15;;
61525;SDS011;47394;41.366;-8.738;2023-04-20T04:58:30;32.55;;;14.70;;
61525;SDS011;47394;41.366;-8.738;2023-04-20T05:00:31;33.88;;;15.30;;
61525;SDS011;47394;41.366;-8.738;2023-04-20T05:02:31;40.25;;;15.82;;
61525;SDS011;47394;41.366;-8.738;2023-04-20T05:04:32;35.65;;;15.48;;
61525;SDS011;47394;41.366;-8.738;2023-04-20T05:06:33;34.60;;;15.70;;
61525;SDS011;47394;41.366;-8.738;2023-04-20T05:08:33;34.63;;;14.65;;
61525;SDS011;47394;41.366;-8.738;2023-04-20T05:10:34;26.63;;;14.93;;
61525;SDS011;47394;41.366;-8.738;2023-04-20T05:12:34;28.15;;;14.35;;
61525;SDS011;47394;41.366;-8.738;2023-04-20T05:14:35;34.47;;;14.55;;
61525;SDS011;47394;41.366;-8.738;2023-04-20T05:16:36;34.92;;;15.38;;
61525;SDS011;47394;41.366;-8.738;2023-04-20T05:18:36;32.10;;;15.25;;
61525;SDS011;47394;41.366;-8.738;2023-04-20T05:20:38;33.28;;;16.20;;
61525;SDS011;47394;41.366;-8.738;2023-04-20T05:22:39;27.08;;;15.52;;
61525;SDS011;47394;41.366;-8.738;2023-04-20T05:24:39;34.72;;;15.50;;
61525;SDS011;47394;41.366;-8.738;2023-04-20T05:26:41;34.90;;;16.15;;
61525;SDS011;47394;41.366;-8.738;2023-04-20T05:28:42;34.75;;;15.48;;
61525;SDS011;47394;41.366;-8.738;2023-04-20T05:30:42;35.30;;;15.73;;
61525;SDS011;47394;41.366;-8.738;2023-04-20T05:32:43;39.40;;;16.88;;
61525;SDS011;47394;41.366;-8.738;2023-04-20T05:34:43;30.27;;;15.18;;
61525;SDS011;47394;41.366;-8.738;2023-04-20T05:36:45;32.88;;;15.50;;
61525;SDS011;47394;41.366;-8.738;2023-04-20T05:38:46;33.92;;;15.68;;
61525;SDS011;47394;41.366;-8.738;2023-04-20T05:40:46;31.58;;;15.82;;
61525;SDS011;47394;41.366;-8.738;2023-04-20T05:42:47;31.55;;;15.23;;
61525;SDS011;47394;41.366;-8.738;2023-04-20T05:44:47;37.75;;;15.68;;
61525;SDS011;47394;41.366;-8.738;2023-04-20T05:46:48;30.17;;;14.57;;
61525;SDS011;47394;41.366;-8.738;2023-04-20T05:48:49;31.30;;;12.90;;
61525;SDS011;47394;41.366;-8.738;2023-04-20T05:50:50;29.63;;;14.75;;
61525;SDS011;47394;41.366;-8.738;2023-04-20T05:52:50;32.53;;;15.20;;
61525;SDS011;47394;41.366;-8.738;2023-04-20T05:54:51;37.20;;;15.00;;
61525;SDS011;47394;41.366;-8.738;2023-04-20T05:56:51;31.20;;;14.70;;
61525;SDS011;47394;41.366;-8.738;2023-04-20T05:58:53;34.85;;;14.63;;
61525;SDS011;47394;41.366;-8.738;2023-04-20T06:00:53;35.65;;;16.15;;
61525;SDS011;47394;41.366;-8.738;2023-04-20T06:02:54;38.72;;;16.52;;
61525;SDS011;47394;41.366;-8.738;2023-04-20T06:04:54;32.67;;;15.60;;
61525;SDS011;47394;41.366;-8.738;2023-04-20T06:06:55;42.78;;;15.93;;
61525;SDS011;47394;41.366;-8.738;2023-04-20T06:08:55;33.72;;;15.40;;
61525;SDS011;47394;41.366;-8.738;2023-04-20T06:10:57;42.97;;;14.77;;
61525;SDS011;47394;41.366;-8.738;2023-04-20T06:12:58;32.60;;;14.80;;
61525;SDS011;47394;41.366;-8.738;2023-04-20T06:14:58;38.15;;;16.67;;
61525;SDS011;47394;41.366;-8.738;2023-04-20T06:16:59;45.30;;;15.50;;
61525;SDS011;47394;41.366;-8.738;2023-04-20T06:18:59;34.35;;;16.27;;
61525;SDS011;47394;41.366;-8.738;2023-04-20T06:21:00;39.53;;;17.08;;
61525;SDS011;47394;41.366;-8.738;2023-04-20T06:23:01;33.53;;;15.68;;
61525;SDS011;47394;41.366;-8.738;2023-04-20T06:25:01;41.15;;;16.63;;
61525;SDS011;47394;41.366;-8.738;2023-04-20T06:27:02;31.73;;;15.65;;
61525;SDS011;47394;41.366;-8.738;2023-04-20T06:29:03;37.25;;;16.92;;
61525;SDS011;47394;41.366;-8.738;2023-04-20T06:31:03;41.10;;;17.70;;
61525;SDS011;47394;41.366;-8.738;2023-04-20T06:33:04;42.17;;;17.35;;
61525;SDS011;47394;41.366;-8.738;2023-04-20T06:35:05;34.33;;;16.60;;
61525;SDS011;47394;41.366;-8.738;2023-04-20T06:37:06;38.28;;;16.25;;
61525;SDS011;47394;41.366;-8.738;2023-04-20T06:39:06;33.80;;;16.33;;
61525;SDS011;47394;41.366;-8.738;2023-04-20T06:41:07;32.55;;;16.40;;
61525;SDS011;47394;41.366;-8.738;2023-04-20T06:43:08;34.22;;;16.98;;
61525;SDS011;47394;41.366;-8.738;2023-04-20T06:45:08;35.72;;;17.77;;
61525;SDS011;47394;41.366;-8.738;2023-04-20T06:47:09;36.97;;;15.40;;
61525;SDS011;47394;41.366;-8.738;2023-04-20T06:49:09;42.38;;;17.40;;
61525;SDS011;47394;41.366;-8.738;2023-04-20T06:51:11;29.73;;;16.60;;
61525;SDS011;47394;41.366;-8.738;2023-04-20T06:53:11;38.85;;;16.50;;
61525;SDS011;47394;41.366;-8.738;2023-04-20T06:55:12;34.53;;;16.20;;
61525;SDS011;47394;41.366;-8.738;2023-04-20T06:57:12;38.45;;;18.35;;
61525;SDS011;47394;41.366;-8.738;2023-04-20T06:59:13;31.38;;;15.88;;
61525;SDS011;47394;41.366;-8.738;2023-04-20T07:03:16;36.58;;;17.20;;
61525;SDS011;47394;41.366;-8.738;2023-04-20T07:05:17;35.15;;;16.13;;
61525;SDS011;47394;41.366;-8.738;2023-04-20T07:07:18;35.85;;;16.88;;
61525;SDS011;47394;41.366;-8.738;2023-04-20T07:09:18;42.92;;;18.30;;
61525;SDS011;47394;41.366;-8.738;2023-04-20T07:11:20;33.40;;;18.08;;
61525;SDS011;47394;41.366;-8.738;2023-04-20T07:13:20;29.65;;;17.13;;
61525;SDS011;47394;41.366;-8.738;2023-04-20T07:15:21;37.28;;;18.10;;
61525;SDS011;47394;41.366;-8.738;2023-04-20T07:17:22;37.53;;;17.48;;
61525;SDS011;47394;41.366;-8.738;2023-04-20T07:19:26;40.38;;;16.50;;
61525;SDS011;47394;41.366;-8.738;2023-04-20T07:21:27;32.92;;;17.83;;
61525;SDS011;47394;41.366;-8.738;2023-04-20T07:23:27;37.25;;;16.92;;
61525;SDS011;47394;41.366;-8.738;2023-04-20T07:25:28;44.70;;;17.10;;
61525;SDS011;47394;41.366;-8.738;2023-04-20T07:27:33;34.47;;;17.63;;
61525;SDS011;47394;41.366;-8.738;2023-04-20T07:29:34;39.78;;;16.50;;
61525;SDS011;47394;41.366;-8.738;2023-04-20T07:31:34;42.05;;;17.10;;
61525;SDS011;47394;41.366;-8.738;2023-04-20T07:33:35;33.92;;;17.25;;
61525;SDS011;47394;41.366;-8.738;2023-04-20T07:35:36;42.65;;;18.40;;
61525;SDS011;47394;41.366;-8.738;2023-04-20T07:37:36;35.20;;;16.50;;
61525;SDS011;47394;41.366;-8.738;2023-04-20T07:39:37;32.67;;;16.95;;
61525;SDS011;47394;41.366;-8.738;2023-04-20T07:41:37;33.40;;;17.30;;
61525;SDS011;47394;41.366;-8.738;2023-04-20T07:43:38;31.65;;;16.70;;
61525;SDS011;47394;41.366;-8.738;2023-04-20T07:45:38;40.47;;;16.98;;
61525;SDS011;47394;41.366;-8.738;2023-04-20T07:47:40;32.53;;;15.90;;
61525;SDS011;47394;41.366;-8.738;2023-04-20T07:51:44;32.45;;;16.00;;
61525;SDS011;47394;41.366;-8.738;2023-04-20T07:53:45;30.15;;;15.57;;
61525;SDS011;47394;41.366;-8.738;2023-04-20T07:55:46;38.22;;;16.50;;
61525;SDS011;47394;41.366;-8.738;2023-04-20T07:57:46;37.85;;;15.20;;
61525;SDS011;47394;41.366;-8.738;2023-04-20T07:59:47;33.78;;;16.45;;
61525;SDS011;47394;41.366;-8.738;2023-04-20T08:01:47;31.98;;;15.00;;
61525;SDS011;47394;41.366;-8.738;2023-04-20T08:03:48;33.67;;;15.18;;
61525;SDS011;47394;41.366;-8.738;2023-04-20T08:05:48;35.55;;;15.05;;
61525;SDS011;47394;41.366;-8.738;2023-04-20T08:07:49;33.22;;;13.57;;
61525;SDS011;47394;41.366;-8.738;2023-04-20T08:09:50;35.70;;;15.27;;
61525;SDS011;47394;41.366;-8.738;2023-04-20T08:11:50;37.95;;;14.05;;
61525;SDS011;47394;41.366;-8.738;2023-04-20T08:13:51;29.75;;;13.35;;
61525;SDS011;47394;41.366;-8.738;2023-04-20T08:15:51;29.83;;;12.82;;
61525;SDS011;47394;41.366;-8.738;2023-04-20T08:17:52;36.28;;;14.02;;
61525;SDS011;47394;41.366;-8.738;2023-04-20T08:19:52;35.85;;;13.18;;
61525;SDS011;47394;41.366;-8.738;2023-04-20T08:21:53;32.47;;;13.75;;
61525;SDS011;47394;41.366;-8.738;2023-04-20T08:23:54;29.25;;;14.48;;
61525;SDS011;47394;41.366;-8.738;2023-04-20T08:25:54;36.47;;;13.93;;
61525;SDS011;47394;41.366;-8.738;2023-04-20T08:27:55;37.28;;;12.48;;
61525;SDS011;47394;41.366;-8.738;2023-04-20T08:29:56;26.25;;;12.10;;
61525;SDS011;47394;41.366;-8.738;2023-04-20T08:31:56;29.35;;;12.02;;
61525;SDS011;47394;41.366;-8.738;2023-04-20T08:33:57;25.02;;;8.88;;
61525;SDS011;47394;41.366;-8.738;2023-04-20T08:35:57;26.83;;;9.02;;
61525;SDS011;47394;41.366;-8.738;2023-04-20T08:37:58;17.55;;;8.20;;
61525;SDS011;47394;41.366;-8.738;2023-04-20T08:39:58;23.88;;;8.93;;
61525;SDS011;47394;41.366;-8.738;2023-04-20T08:41:59;29.73;;;11.13;;
61525;SDS011;47394;41.366;-8.738;2023-04-20T08:43:59;28.83;;;9.98;;
61525;SDS011;47394;41.366;-8.738;2023-04-20T08:46:00;17.35;;;8.25;;
61525;SDS011;47394;41.366;-8.738;2023-04-20T08:48:04;24.25;;;6.68;;
61525;SDS011;47394;41.366;-8.738;2023-04-20T08:50:05;14.80;;;6.70;;
61525;SDS011;47394;41.366;-8.738;2023-04-20T08:52:06;16.20;;;6.10;;
61525;SDS011;47394;41.366;-8.738;2023-04-20T08:54:10;24.13;;;6.63;;
61525;SDS011;47394;41.366;-8.738;2023-04-20T08:56:11;18.08;;;7.70;;
61525;SDS011;47394;41.366;-8.738;2023-04-20T08:58:11;17.77;;;7.78;;
61525;SDS011;47394;41.366;-8.738;2023-04-20T09:00:13;27.33;;;7.82;;
61525;SDS011;47394;41.366;-8.738;2023-04-20T09:02:14;15.77;;;7.18;;
61525;SDS011;47394;41.366;-8.738;2023-04-20T09:04:21;18.60;;;8.07;;
61525;SDS011;47394;41.366;-8.738;2023-04-20T09:06:21;26.35;;;8.63;;
61525;SDS011;47394;41.366;-8.738;2023-04-20T09:08:32;22.63;;;6.90;;
61525;SDS011;47394;41.366;-8.738;2023-04-20T09:10:43;20.48;;;7.57;;
61525;SDS011;47394;41.366;-8.738;2023-04-20T09:12:43;21.20;;;7.07;;
61525;SDS011;47394;41.366;-8.738;2023-04-20T09:14:45;19.95;;;6.18;;
61525;SDS011;47394;41.366;-8.738;2023-04-20T09:16:52;23.65;;;6.22;;
61525;SDS011;47394;41.366;-8.738;2023-04-20T09:18:56;23.55;;;6.45;;
61525;SDS011;47394;41.366;-8.738;2023-04-20T09:20:56;18.58;;;7.05;;
61525;SDS011;47394;41.366;-8.738;2023-04-20T09:23:11;15.23;;;5.47;;
61525;SDS011;47394;41.366;-8.738;2023-04-20T09:25:15;14.38;;;5.75;;
61525;SDS011;47394;41.366;-8.738;2023-04-20T09:27:16;29.85;;;6.78;;
61525;SDS011;47394;41.366;-8.738;2023-04-20T09:29:18;30.05;;;7.35;;
61525;SDS011;47394;41.366;-8.738;2023-04-20T09:31:20;32.43;;;7.00;;
61525;SDS011;47394;41.366;-8.738;2023-04-20T09:33:26;25.13;;;6.85;;
61525;SDS011;47394;41.366;-8.738;2023-04-20T09:35:26;26.83;;;6.13;;
61525;SDS011;47394;41.366;-8.738;2023-04-20T09:37:27;19.48;;;5.65;;
61525;SDS011;47394;41.366;-8.738;2023-04-20T09:39:27;19.92;;;5.85;;
61525;SDS011;47394;41.366;-8.738;2023-04-20T09:41:30;23.13;;;5.93;;
61525;SDS011;47394;41.366;-8.738;2023-04-20T09:43:31;23.08;;;6.65;;
61525;SDS011;47394;41.366;-8.738;2023-04-20T09:45:32;19.65;;;5.82;;
61525;SDS011;47394;41.366;-8.738;2023-04-20T09:47:34;15.52;;;5.78;;
61525;SDS011;47394;41.366;-8.738;2023-04-20T09:49:35;16.88;;;5.53;;
61525;SDS011;47394;41.366;-8.738;2023-04-20T09:51:36;20.10;;;6.10;;
61525;SDS011;47394;41.366;-8.738;2023-04-20T09:53:37;28.92;;;7.22;;
61525;SDS011;47394;41.366;-8.738;2023-04-20T09:55:38;23.08;;;5.60;;
61525;SDS011;47394;41.366;-8.738;2023-04-20T09:57:39;23.05;;;6.07;;
61525;SDS011;47394;41.366;-8.738;2023-04-20T09:59:45;20.30;;;5.43;;
61525;SDS011;47394;41.366;-8.738;2023-04-20T10:01:46;15.85;;;5.18;;
61525;SDS011;47394;41.366;-8.738;2023-04-20T10:03:46;17.02;;;5.40;;
61525;SDS011;47394;41.366;-8.738;2023-04-20T10:05:47;20.77;;;5.82;;
61525;SDS011;47394;41.366;-8.738;2023-04-20T10:07:57;23.67;;;4.97;;
61525;SDS011;47394;41.366;-8.738;2023-04-20T10:10:02;22.60;;;5.30;;
61525;SDS011;47394;41.366;-8.738;2023-04-20T10:12:06;19.02;;;5.57;;
61525;SDS011;47394;41.366;-8.738;2023-04-20T10:14:14;23.38;;;5.90;;
61525;SDS011;47394;41.366;-8.738;2023-04-20T10:16:18;18.55;;;5.28;;
61525;SDS011;47394;41.366;-8.738;2023-04-20T10:18:19;16.83;;;5.78;;
61525;SDS011;47394;41.366;-8.738;2023-04-20T10:20:27;20.00;;;5.97;;
61525;SDS011;47394;41.366;-8.738;2023-04-20T10:22:29;14.82;;;4.70;;
61525;SDS011;47394;41.366;-8.738;2023-04-20T10:24:32;16.40;;;5.32;;
61525;SDS011;47394;41.366;-8.738;2023-04-20T10:26:41;16.27;;;5.40;;
61525;SDS011;47394;41.366;-8.738;2023-04-20T10:28:42;15.60;;;5.30;;
61525;SDS011;47394;41.366;-8.738;2023-04-20T10:30:50;14.82;;;5.10;;
61525;SDS011;47394;41.366;-8.738;2023-04-20T10:33:07;26.00;;;5.35;;
61525;SDS011;47394;41.366;-8.738;2023-04-20T10:35:09;15.35;;;5.35;;
61525;SDS011;47394;41.366;-8.738;2023-04-20T10:37:11;14.43;;;5.05;;
61525;SDS011;47394;41.366;-8.738;2023-04-20T10:39:15;19.48;;;4.88;;
61525;SDS011;47394;41.366;-8.738;2023-04-20T10:41:15;15.57;;;5.07;;
61525;SDS011;47394;41.366;-8.738;2023-04-20T10:43:17;15.07;;;5.60;;
61525;SDS011;47394;41.366;-8.738;2023-04-20T10:45:18;16.23;;;5.37;;
61525;SDS011;47394;41.366;-8.738;2023-04-20T10:47:30;23.65;;;5.30;;
61525;SDS011;47394;41.366;-8.738;2023-04-20T10:49:30;17.92;;;5.13;;
61525;SDS011;47394;41.366;-8.738;2023-04-20T10:51:31;16.45;;;5.28;;
61525;SDS011;47394;41.366;-8.738;2023-04-20T10:53:32;21.23;;;5.43;;
61525;SDS011;47394;41.366;-8.738;2023-04-20T10:55:32;20.40;;;4.88;;
61525;SDS011;47394;41.366;-8.738;2023-04-20T10:57:34;12.95;;;5.07;;
61525;SDS011;47394;41.366;-8.738;2023-04-20T10:59:35;15.27;;;5.55;;
61525;SDS011;47394;41.366;-8.738;2023-04-20T11:01:38;18.55;;;5.63;;
61525;SDS011;47394;41.366;-8.738;2023-04-20T11:03:38;17.25;;;5.53;;
61525;SDS011;47394;41.366;-8.738;2023-04-20T11:05:39;19.75;;;4.80;;
61525;SDS011;47394;41.366;-8.738;2023-04-20T11:09:53;20.67;;;5.95;;
61525;SDS011;47394;41.366;-8.738;2023-04-20T11:12:04;15.20;;;6.30;;
61525;SDS011;47394;41.366;-8.738;2023-04-20T11:14:05;22.52;;;5.80;;
61525;SDS011;47394;41.366;-8.738;2023-04-20T11:16:13;20.97;;;5.87;;
61525;SDS011;47394;41.366;-8.738;2023-04-20T11:18:15;19.08;;;5.63;;
61525;SDS011;47394;41.366;-8.738;2023-04-20T11:20:15;21.77;;;6.38;;
61525;SDS011;47394;41.366;-8.738;2023-04-20T11:22:20;19.15;;;6.15;;
61525;SDS011;47394;41.366;-8.738;2023-04-20T11:24:28;22.15;;;6.13;;
61525;SDS011;47394;41.366;-8.738;2023-04-20T11:26:33;16.00;;;5.78;;
61525;SDS011;47394;41.366;-8.738;2023-04-20T11:28:35;21.30;;;6.50;;
61525;SDS011;47394;41.366;-8.738;2023-04-20T11:30:39;28.48;;;6.93;;
61525;SDS011;47394;41.366;-8.738;2023-04-20T11:32:40;20.45;;;7.18;;
61525;SDS011;47394;41.366;-8.738;2023-04-20T11:34:40;17.58;;;5.68;;
61525;SDS011;47394;41.366;-8.738;2023-04-20T11:36:41;28.35;;;6.95;;
61525;SDS011;47394;41.366;-8.738;2023-04-20T11:38:41;19.65;;;5.90;;
61525;SDS011;47394;41.366;-8.738;2023-04-20T11:40:42;27.13;;;7.22;;
61525;SDS011;47394;41.366;-8.738;2023-04-20T11:42:42;25.38;;;6.88;;
61525;SDS011;47394;41.366;-8.738;2023-04-20T11:44:43;20.15;;;7.78;;
61525;SDS011;47394;41.366;-8.738;2023-04-20T11:46:43;21.50;;;7.18;;
61525;SDS011;47394;41.366;-8.738;2023-04-20T11:48:45;18.83;;;6.43;;
61525;SDS011;47394;41.366;-8.738;2023-04-20T11:50:45;21.90;;;8.10;;
61525;SDS011;47394;41.366;-8.738;2023-04-20T11:52:46;13.95;;;5.57;;